Aviation Digital Data Service (ADDS)

Output produced by METARs form (1151 UTC 01 August 2014)
found at http://aviationweather.gov/adds/metars/
 
KEWR 011136Z 0112/0218 21005KT P6SM BKN100 
     FM011500 17008KT P6SM FEW060 BKN250 
     FM011800 16010KT P6SM SCT060 BKN150 
     FM020000 18006KT P6SM FEW060 BKN150 
     FM020400 VRB05KT P6SM VCSH SCT050 BKN100 
     FM020800 05005KT 6SM -SHRA BKN050 
     FM021100 05007KT 5SM -SHRA BR BKN030